Time;durP1;ratioP1;P1;durP2;ratioP2;P2;SDS_P1;SDS_P2;PMS_P1;PMS_P2;Temp;Humidity;BMP_temperature;BMP_pressure;BME280_temperature;BME280_humidity;BME280_pressure;Samples;Min_cycle;Max_cycle;Signal;HPM_P1;HPM_P2
2022/08/03 00:00:33;;;;;;;;;;;;;;;21.94;64.51;100757.59;5025071;28;19924;-86
2022/08/03 00:02:59;;;;;;;;;;;;;;;22.00;64.12;100758.56;5025446;28;19987;-84
2022/08/03 00:05:25;;;;;;;;;;;;;;;21.99;63.91;100760.47;5024261;28;19980;-84
2022/08/03 00:07:52;;;;;;;;;;;;;;;22.01;63.51;100761.06;4995944;28;19921;-83
2022/08/03 00:10:17;;;;;;;;;;;;;;;22.03;63.02;100761.69;5004478;28;20363;-85
2022/08/03 00:12:44;;;;;;;;;;;;;;;22.04;62.57;100759.78;5025108;28;19921;-82
2022/08/03 00:15:09;;;;;;;;;;;;;;;22.04;62.27;100757.03;5021382;28;19976;-85
2022/08/03 00:17:35;;;;;;;;;;;;;;;21.93;61.13;100753.19;5002863;28;19921;-85
2022/08/03 00:20:00;;;;;;;;;;;;;;;21.99;61.72;100755.00;5003464;28;19970;-85
2022/08/03 00:22:27;;;;;;;;;;;;;;;21.95;61.48;100752.97;5022967;28;20317;-84
2022/08/03 00:24:52;;;;;;;;;;;;;;;21.92;61.58;100754.28;5034878;28;19924;-84
2022/08/03 00:27:18;;;;;;;;;;;;;;;21.93;61.35;100748.53;5014051;28;19937;-85
2022/08/03 00:29:43;;;;;;;;;;;;;;;21.93;61.33;100744.97;5021964;28;20130;-84
2022/08/03 00:32:08;;;;;;;;;;;;;;;21.79;61.34;100746.25;5019483;28;20317;-84
2022/08/03 00:34:34;;;;;;;;;;;;;;;21.78;61.53;100745.41;5016206;28;19921;-84
2022/08/03 00:36:59;;;;;;;;;;;;;;;21.85;60.96;100742.59;5025931;28;20353;-86
2022/08/03 00:39:24;;;;;;;;;;;;;;;21.81;60.77;100739.47;5027936;28;20301;-86
2022/08/03 00:41:50;;;;;;;;;;;;;;;21.73;60.46;100739.81;5017330;28;20282;-85
2022/08/03 00:44:15;;;;;;;;;;;;;;;21.64;60.64;100743.94;5022573;28;20349;-85
2022/08/03 00:46:40;;;;;;;;;;;;;;;21.62;60.48;100737.88;5017557;28;19971;-84
2022/08/03 00:49:06;;;;;;;;;;;;;;;21.65;60.66;100740.97;5029194;28;19921;-84
2022/08/03 00:51:31;;;;;;;;;;;;;;;21.63;60.61;100742.25;5034006;28;19929;-84
2022/08/03 00:53:58;;;;;;;;;;;;;;;21.50;60.31;100740.56;5031709;28;19960;-86
2022/08/03 00:56:23;;;;;;;;;;;;;;;21.52;60.46;100741.16;5026325;28;19921;-83
2022/08/03 00:58:49;;;;;;;;;;;;;;;21.42;59.99;100730.78;5021652;28;19928;-83
2022/08/03 01:01:14;;;;;;;;;;;;;;;21.49;59.93;100738.88;5022474;28;19944;-84
2022/08/03 01:03:39;;;;;;;;;;;;;;;21.48;60.21;100750.88;5039272;28;19970;-82
2022/08/03 01:06:14;;;;;;;;;;;;;;;21.50;60.27;100740.56;5037594;28;20408;-85
2022/08/03 01:08:39;;;;;;;;;;;;;;;21.48;59.99;100742.69;5023785;28;19951;-84
2022/08/03 01:11:10;;;;;;;;;;;;;;;21.50;59.93;100746.84;5026411;28;20369;-85
2022/08/03 01:13:54;;;;;;;;;;;;;;;21.50;59.40;100748.75;5031984;28;20453;-84
2022/08/03 01:16:38;;;;;;;;;;;;;;;21.46;59.77;100742.91;5038752;28;19925;-85
2022/08/03 01:19:03;;;;;;;;;;;;;;;21.57;59.47;100749.50;5051928;28;20290;-82
2022/08/03 01:21:34;;;;;;;;;;;;;;;21.50;59.61;100743.28;5045525;28;19925;-84
2022/08/03 01:24:10;;;;;;;;;;;;;;;21.45;59.51;100751.38;5033709;28;19920;-84
2022/08/03 01:26:55;;;;;;;;;;;;;;;21.33;59.72;100744.94;5031096;28;19928;-84
2022/08/03 01:29:40;;;;;;;;;;;;;;;21.36;60.24;100742.59;5023058;28;19921;-85
2022/08/03 01:32:18;;;;;;;;;;;;;;;21.40;60.08;100743.84;5033644;28;19923;-84
2022/08/03 01:34:46;;;;;;;;;;;;;;;21.39;59.87;100746.78;5031806;28;19928;-85
2022/08/03 01:37:12;;;;;;;;;;;;;;;21.36;59.80;100752.72;5028169;28;20317;-84
2022/08/03 01:39:37;;;;;;;;;;;;;;;21.33;59.96;100756.75;5050715;28;19928;-85
2022/08/03 01:42:05;;;;;;;;;;;;;;;21.34;60.41;100754.84;5027027;28;20392;-84
2022/08/03 01:44:37;;;;;;;;;;;;;;;21.35;60.51;100745.56;5031912;28;19925;-84
2022/08/03 01:47:02;;;;;;;;;;;;;;;21.31;61.00;100755.31;5028674;28;19927;-85
2022/08/03 01:49:29;;;;;;;;;;;;;;;21.34;61.17;100754.84;5033307;28;19916;-86
2022/08/03 01:51:56;;;;;;;;;;;;;;;21.26;61.71;100748.63;5034850;28;20015;-86
2022/08/03 01:54:22;;;;;;;;;;;;;;;21.29;62.09;100756.34;5033016;28;19925;-83
2022/08/03 01:56:47;;;;;;;;;;;;;;;21.36;62.76;100745.34;5030115;28;19925;-83
2022/08/03 01:59:13;;;;;;;;;;;;;;;21.42;63.18;100751.81;5051734;28;20408;-84
2022/08/03 02:01:38;;;;;;;;;;;;;;;21.32;64.13;100752.31;5043563;28;19927;-84
2022/08/03 02:04:04;;;;;;;;;;;;;;;21.31;64.44;100747.09;5032171;28;20368;-83
2022/08/03 02:06:29;;;;;;;;;;;;;;;21.28;64.65;100757.44;5016289;28;19921;-84
2022/08/03 02:08:55;;;;;;;;;;;;;;;21.29;63.87;100758.25;5051889;28;19925;-85
2022/08/03 02:11:20;;;;;;;;;;;;;;;21.25;64.36;100751.56;5032138;28;19921;-84
2022/08/03 02:13:45;;;;;;;;;;;;;;;21.22;65.07;100758.34;5030492;28;19956;-84
2022/08/03 02:16:12;;;;;;;;;;;;;;;21.20;64.57;100751.44;5038333;28;19972;-85
2022/08/03 02:18:38;;;;;;;;;;;;;;;21.29;64.50;100764.56;5050184;28;20007;-85
2022/08/03 02:21:04;;;;;;;;;;;;;;;21.14;65.56;100755.94;5028853;28;20003;-84
2022/08/03 02:23:29;;;;;;;;;;;;;;;21.17;65.43;100755.47;5029145;28;19929;-84
2022/08/03 02:25:59;;;;;;;;;;;;;;;21.17;65.21;100754.63;5031679;28;20401;-84
2022/08/03 02:28:29;;;;;;;;;;;;;;;21.19;65.15;100753.34;5031423;28;20431;-84
2022/08/03 02:30:55;;;;;;;;;;;;;;;21.15;65.06;100762.22;5028890;28;19964;-84
2022/08/03 02:33:31;;;;;;;;;;;;;;;21.14;64.32;100750.47;5029723;28;19956;-84
2022/08/03 02:35:56;;;;;;;;;;;;;;;21.12;63.11;100752.56;5029279;28;19925;-83
2022/08/03 02:38:22;;;;;;;;;;;;;;;21.12;62.80;100760.78;5031682;28;19975;-83
2022/08/03 02:40:48;;;;;;;;;;;;;;;21.18;62.81;100759.03;5033273;28;19925;-84
2022/08/03 02:43:15;;;;;;;;;;;;;;;21.13;62.66;100758.88;5021699;28;19918;-84
2022/08/03 02:45:41;;;;;;;;;;;;;;;21.16;62.50;100764.72;5029164;28;19921;-82
2022/08/03 02:48:06;;;;;;;;;;;;;;;21.15;62.48;100763.06;5020299;28;19944;-84
2022/08/03 02:50:32;;;;;;;;;;;;;;;20.92;62.80;100747.31;5019260;28;19921;-84
2022/08/03 02:52:59;;;;;;;;;;;;;;;21.00;62.56;100765.31;5022673;28;20392;-85
2022/08/03 02:55:25;;;;;;;;;;;;;;;21.01;62.56;100756.06;5012138;28;20405;-84
2022/08/03 02:57:50;;;;;;;;;;;;;;;21.08;61.89;100756.81;5037502;28;20001;-84
2022/08/03 03:00:16;;;;;;;;;;;;;;;21.06;61.86;100761.69;5013139;28;20008;-83
2022/08/03 03:02:41;;;;;;;;;;;;;;;20.96;61.93;100755.91;5028372;28;20014;-85
2022/08/03 03:05:07;;;;;;;;;;;;;;;20.99;61.92;100755.47;5039321;28;19983;-84
2022/08/03 03:07:32;;;;;;;;;;;;;;;20.98;61.70;100764.72;5027441;28;19925;-84
2022/08/03 03:09:58;;;;;;;;;;;;;;;20.85;61.15;100754.75;5027352;28;19928;-85
2022/08/03 03:12:23;;;;;;;;;;;;;;;21.04;61.01;100763.81;5026945;28;20629;-83
2022/08/03 03:14:49;;;;;;;;;;;;;;;21.02;61.13;100763.19;5028449;28;20837;-83
2022/08/03 03:17:16;;;;;;;;;;;;;;;21.04;61.28;100764.63;5019738;28;19921;-83
2022/08/03 03:19:41;;;;;;;;;;;;;;;21.06;61.13;100767.16;5027795;28;19933;-85
2022/08/03 03:22:07;;;;;;;;;;;;;;;21.06;60.95;100769.88;5008880;28;19971;-84
2022/08/03 03:24:32;;;;;;;;;;;;;;;21.13;60.79;100770.63;5028856;28;19939;-85
2022/08/03 03:27:01;;;;;;;;;;;;;;;21.07;60.86;100774.28;4993762;28;20385;-85
2022/08/03 03:29:26;;;;;;;;;;;;;;;21.11;61.11;100775.50;5011877;28;20030;-88
2022/08/03 03:31:52;;;;;;;;;;;;;;;21.14;60.65;100779.66;4993132;28;19956;-86
2022/08/03 03:34:18;;;;;;;;;;;;;;;21.14;60.69;100777.78;5015977;28;20079;-86
2022/08/03 03:36:43;;;;;;;;;;;;;;;21.14;60.84;100785.13;5006162;28;20017;-85
2022/08/03 03:39:09;;;;;;;;;;;;;;;21.12;60.70;100779.91;5024060;28;20017;-85
2022/08/03 03:41:36;;;;;;;;;;;;;;;21.14;60.54;100783.25;5005280;28;19944;-84
2022/08/03 03:44:02;;;;;;;;;;;;;;;21.15;60.41;100782.19;5019512;28;19975;-84
2022/08/03 03:46:27;;;;;;;;;;;;;;;21.15;60.16;100786.81;5034370;28;19929;-85
2022/08/03 03:48:53;;;;;;;;;;;;;;;21.17;60.03;100782.78;5010819;28;19933;-85
2022/08/03 03:51:19;;;;;;;;;;;;;;;21.25;59.91;100790.69;5008909;28;19921;-84
2022/08/03 03:53:54;;;;;;;;;;;;;;;21.29;59.55;100793.81;5037448;28;19925;-84
2022/08/03 03:56:20;;;;;;;;;;;;;;;21.32;59.43;100797.97;5010793;28;20287;-85
2022/08/03 03:58:45;;;;;;;;;;;;;;;21.35;59.20;100800.25;5032914;28;19928;-84
2022/08/03 04:01:11;;;;;;;;;;;;;;;21.44;58.69;100788.78;5021668;28;19917;-84
2022/08/03 04:03:37;;;;;;;;;;;;;;;21.49;58.65;100796.31;5011352;28;19933;-85
2022/08/03 04:11:33;;;;;;;;;;;;;;;21.61;57.81;100799.97;5026285;28;19928;-84
2022/08/03 04:14:13;;;;;;;;;;;;;;;21.63;58.01;100797.84;5013048;28;20337;-84
2022/08/03 04:16:39;;;;;;;;;;;;;;;21.55;58.19;100802.78;5047574;28;20303;-83
2022/08/03 04:19:05;;;;;;;;;;;;;;;21.69;57.88;100807.00;5015367;28;19984;-84
2022/08/03 04:21:31;;;;;;;;;;;;;;;21.59;57.76;100806.72;5023769;28;20369;-84
2022/08/03 04:23:58;;;;;;;;;;;;;;;21.66;57.65;100807.47;5010275;28;20658;-86
2022/08/03 04:26:23;;;;;;;;;;;;;;;21.76;57.86;100804.19;5014091;28;19921;-85
2022/08/03 04:28:50;;;;;;;;;;;;;;;21.71;57.55;100813.09;5030802;28;19925;-84
2022/08/03 04:31:15;;;;;;;;;;;;;;;21.79;57.53;100807.28;5012241;28;20307;-85
2022/08/03 04:33:41;;;;;;;;;;;;;;;21.89;57.41;100809.44;5000214;28;19924;-85
2022/08/03 04:36:08;;;;;;;;;;;;;;;22.01;57.22;100809.50;5011470;28;19924;-84
2022/08/03 04:38:38;;;;;;;;;;;;;;;22.00;57.14;100805.09;5019603;28;20062;-85
2022/08/03 04:41:03;;;;;;;;;;;;;;;22.21;56.52;100809.25;5016823;28;19921;-84
2022/08/03 04:43:28;;;;;;;;;;;;;;;22.24;56.32;100798.66;5032226;28;20448;-85
2022/08/03 04:45:53;;;;;;;;;;;;;;;22.43;55.76;100810.38;5015139;28;20408;-84
2022/08/03 04:48:19;;;;;;;;;;;;;;;22.57;55.56;100807.38;5011392;28;19968;-84
2022/08/03 04:50:45;;;;;;;;;;;;;;;22.80;54.35;100807.38;5026115;28;19930;-84
2022/08/03 04:53:10;;;;;;;;;;;;;;;23.06;53.63;100806.13;5014028;28;19971;-85
2022/08/03 04:55:35;;;;;;;;;;;;;;;23.14;53.66;100804.91;5012525;28;19936;-86
2022/08/03 04:58:02;;;;;;;;;;;;;;;23.33;53.39;100809.16;5001043;28;19928;-84
2022/08/03 05:00:28;;;;;;;;;;;;;;;23.62;52.25;100806.44;5025773;28;19961;-86
2022/08/03 05:02:54;;;;;;;;;;;;;;;23.85;51.34;100808.31;5008083;28;20388;-86
2022/08/03 05:05:20;;;;;;;;;;;;;;;24.02;50.99;100808.34;4990300;28;20020;-85
2022/08/03 05:07:45;;;;;;;;;;;;;;;24.12;51.01;100814.03;5025126;28;19928;-86
2022/08/03 05:10:11;;;;;;;;;;;;;;;24.43;49.44;100820.03;5015131;28;19943;-84
2022/08/03 05:12:38;;;;;;;;;;;;;;;24.64;49.50;100813.81;4994965;28;20026;-85
2022/08/03 05:15:04;;;;;;;;;;;;;;;24.84;49.01;100815.22;5015884;28;20001;-87
2022/08/03 05:17:32;;;;;;;;;;;;;;;25.12;48.11;100816.16;5027781;28;19932;-85
2022/08/03 05:20:00;;;;;;;;;;;;;;;25.28;47.06;100810.63;5019559;28;19961;-84
2022/08/03 05:22:25;;;;;;;;;;;;;;;25.48;46.19;100804.56;5024421;28;19924;-83
2022/08/03 05:24:51;;;;;;;;;;;;;;;25.63;45.78;100812.16;5004900;28;20024;-85
2022/08/03 05:27:18;;;;;;;;;;;;;;;25.88;45.07;100828.19;5022372;28;20007;-84
2022/08/03 05:29:47;;;;;;;;;;;;;;;25.96;43.90;100820.56;5013123;28;19928;-84
2022/08/03 05:32:14;;;;;;;;;;;;;;;26.16;43.31;100823.53;5008163;28;19921;-86
2022/08/03 05:34:43;;;;;;;;;;;;;;;26.31;42.89;100825.56;5002683;28;21282;-84
2022/08/03 05:37:08;;;;;;;;;;;;;;;26.57;42.56;100826.66;5021326;28;20029;-84
2022/08/03 05:39:34;;;;;;;;;;;;;;;26.87;41.68;100827.97;5030409;28;19921;-85
2022/08/03 05:42:00;;;;;;;;;;;;;;;26.99;40.99;100827.78;5013406;28;20360;-85
2022/08/03 05:44:29;;;;;;;;;;;;;;;27.26;40.60;100833.22;5014457;28;19979;-83
2022/08/03 05:46:55;;;;;;;;;;;;;;;27.42;40.44;100820.28;5024203;28;19932;-84
2022/08/03 05:49:21;;;;;;;;;;;;;;;27.68;40.71;100822.06;5006937;28;20374;-83
2022/08/03 05:51:50;;;;;;;;;;;;;;;27.94;39.79;100822.16;5009968;28;19960;-87
2022/08/03 05:54:23;;;;;;;;;;;;;;;28.11;38.18;100819.16;5030243;28;19932;-87
2022/08/03 05:56:49;;;;;;;;;;;;;;;28.38;38.46;100830.78;5009896;28;19925;-82
2022/08/03 05:59:16;;;;;;;;;;;;;;;28.36;37.96;100823.88;5013412;28;19927;-85
2022/08/03 06:01:44;;;;;;;;;;;;;;;28.47;36.83;100844.06;5023907;28;20296;-84
2022/08/03 06:04:12;;;;;;;;;;;;;;;28.41;37.44;100832.16;5008219;28;19925;-86
2022/08/03 06:06:37;;;;;;;;;;;;;;;28.54;37.27;100830.81;5011863;28;19929;-88
2022/08/03 06:09:04;;;;;;;;;;;;;;;28.46;37.04;100831.34;5014599;28;19921;-86
2022/08/03 06:11:35;;;;;;;;;;;;;;;28.61;37.16;100831.34;5010782;28;20360;-83
2022/08/03 06:14:05;;;;;;;;;;;;;;;28.82;36.79;100827.47;5031149;28;19921;-87
2022/08/03 06:16:36;;;;;;;;;;;;;;;29.03;36.50;100830.19;5031017;28;19917;-86
2022/08/03 06:19:05;;;;;;;;;;;;;;;29.28;36.00;100837.63;5007150;28;20005;-86
2022/08/03 06:21:31;;;;;;;;;;;;;;;29.35;35.10;100829.03;5023181;28;19925;-89
2022/08/03 06:24:02;;;;;;;;;;;;;;;29.40;35.04;100829.00;5035709;28;19933;-89
2022/08/03 06:26:27;;;;;;;;;;;;;;;29.57;34.68;100832.28;5032856;28;19932;-87
2022/08/03 06:28:53;;;;;;;;;;;;;;;29.65;34.37;100841.91;5033241;28;19976;-85
2022/08/03 06:31:20;;;;;;;;;;;;;;;29.76;34.08;100823.31;5035379;28;19925;-90
2022/08/03 06:33:47;;;;;;;;;;;;;;;30.06;33.53;100828.69;5019384;28;20008;-85
2022/08/03 06:36:13;;;;;;;;;;;;;;;30.20;32.88;100822.47;5024443;28;19921;-85
2022/08/03 06:38:38;;;;;;;;;;;;;;;30.12;33.33;100832.25;5042125;28;19922;-83
2022/08/03 06:41:04;;;;;;;;;;;;;;;30.25;32.67;100826.06;5022155;28;19979;-86
2022/08/03 06:43:36;;;;;;;;;;;;;;;30.25;32.10;100826.06;5012982;28;19929;-86
2022/08/03 06:46:02;;;;;;;;;;;;;;;30.17;32.37;100832.22;5033595;28;19921;-87
2022/08/03 06:48:27;;;;;;;;;;;;;;;30.34;32.12;100823.50;5009698;28;20027;-87
2022/08/03 06:50:54;;;;;;;;;;;;;;;30.20;32.25;100825.25;5023327;28;20072;-83
2022/08/03 06:53:19;;;;;;;;;;;;;;;30.17;32.55;100828.63;5024183;28;19958;-85
2022/08/03 06:55:45;;;;;;;;;;;;;;;30.39;32.41;100831.81;5021969;28;19928;-83
2022/08/03 06:58:13;;;;;;;;;;;;;;;30.48;32.19;100830.06;5023019;28;20604;-85
2022/08/03 07:00:39;;;;;;;;;;;;;;;30.67;31.64;100821.00;5025677;28;19925;-87
2022/08/03 07:03:10;;;;;;;;;;;;;;;30.85;31.82;100822.25;5024252;28;19925;-87
2022/08/03 07:05:36;;;;;;;;;;;;;;;31.17;30.86;100826.38;5022413;28;19918;-86
2022/08/03 07:08:04;;;;;;;;;;;;;;;31.20;30.06;100823.81;5018655;28;19970;-88
2022/08/03 07:10:29;;;;;;;;;;;;;;;30.80;30.37;100825.88;5026309;28;19944;-86
2022/08/03 07:12:56;;;;;;;;;;;;;;;30.71;30.85;100822.91;5042352;28;20377;-83
2022/08/03 07:15:22;;;;;;;;;;;;;;;30.92;30.49;100822.75;5025604;28;19948;-85
2022/08/03 07:17:50;;;;;;;;;;;;;;;31.23;30.53;100834.31;5024558;28;19951;-86
2022/08/03 07:20:17;;;;;;;;;;;;;;;31.36;29.72;100831.97;5016753;28;19928;-86
2022/08/03 07:22:43;;;;;;;;;;;;;;;31.16;29.68;100833.84;5028899;28;19975;-86
2022/08/03 07:25:09;;;;;;;;;;;;;;;31.37;29.64;100830.84;5002134;28;19956;-84
2022/08/03 07:27:37;;;;;;;;;;;;;;;31.79;28.98;100832.81;5022803;28;19925;-81
2022/08/03 07:30:06;;;;;;;;;;;;;;;32.05;28.50;100838.84;5010251;28;20417;-85
2022/08/03 07:32:34;;;;;;;;;;;;;;;32.31;27.83;100830.13;5007481;28;20353;-84
2022/08/03 07:35:02;;;;;;;;;;;;;;;32.40;27.87;100839.44;5008331;28;20101;-87
2022/08/03 07:37:31;;;;;;;;;;;;;;;32.78;26.79;100844.94;4991826;28;20393;-86
2022/08/03 07:40:02;;;;;;;;;;;;;;;32.86;26.61;100841.44;5029722;28;19922;-88
2022/08/03 07:42:36;;;;;;;;;;;;;;;33.05;26.68;100832.22;5032349;28;19925;-89
2022/08/03 07:45:03;;;;;;;;;;;;;;;33.29;26.26;100843.16;5013430;28;19927;-88
2022/08/03 07:47:31;;;;;;;;;;;;;;;33.20;25.78;100835.53;5017752;28;19932;-87
2022/08/03 07:53:00;;;;;;;;;;;;;;;33.35;26.12;100834.41;5031330;28;19937;-82
2022/08/03 07:55:34;;;;;;;;;;;;;;;33.43;25.78;100846.78;5013484;28;19921;-82
2022/08/03 07:58:11;;;;;;;;;;;;;;;32.83;25.46;100841.22;5014659;28;20003;-83
2022/08/03 08:00:41;;;;;;;;;;;;;;;32.99;25.20;100839.81;5014351;28;19922;-83
2022/08/03 08:03:10;;;;;;;;;;;;;;;33.02;25.46;100844.78;5023732;28;19921;-84
2022/08/03 08:05:36;;;;;;;;;;;;;;;32.74;25.89;100849.47;5018200;28;19921;-81
2022/08/03 08:08:06;;;;;;;;;;;;;;;33.04;26.11;100842.53;5046705;28;20415;-84
2022/08/03 08:10:31;;;;;;;;;;;;;;;33.26;25.57;100836.25;5018544;28;19923;-84
2022/08/03 08:12:58;;;;;;;;;;;;;;;33.53;25.22;100842.94;5036144;28;20367;-83
2022/08/03 08:15:25;;;;;;;;;;;;;;;33.27;24.87;100846.28;5016832;28;19990;-82
2022/08/03 08:17:52;;;;;;;;;;;;;;;33.80;24.54;100853.25;5032374;28;19924;-85
2022/08/03 08:20:19;;;;;;;;;;;;;;;34.11;23.74;100847.81;4997838;28;20286;-82
2022/08/03 08:22:50;;;;;;;;;;;;;;;34.71;22.94;100851.44;5012873;28;19922;-83
2022/08/03 08:25:18;;;;;;;;;;;;;;;34.68;23.34;100842.53;5033822;28;19963;-83
2022/08/03 08:28:05;;;;;;;;;;;;;;;34.94;22.88;100853.03;5034019;28;20421;-84
2022/08/03 08:30:31;;;;;;;;;;;;;;;35.36;22.56;100856.38;5025957;28;19921;-84
2022/08/03 08:32:56;;;;;;;;;;;;;;;35.55;21.91;100838.50;5015321;28;19980;-84
2022/08/03 08:35:22;;;;;;;;;;;;;;;35.80;21.69;100850.88;5040222;28;20012;-83
2022/08/03 08:37:47;;;;;;;;;;;;;;;35.58;21.91;100854.59;5031196;28;19952;-84
2022/08/03 08:40:13;;;;;;;;;;;;;;;36.10;21.49;100837.94;5031300;28;19932;-85
2022/08/03 08:43:05;;;;;;;;;;;;;;;36.64;21.71;100840.38;5026158;28;19917;-87
2022/08/03 08:45:30;;;;;;;;;;;;;;;37.35;20.76;100825.81;4999597;28;19925;-84
2022/08/03 08:47:56;;;;;;;;;;;;;;;37.36;20.67;100833.03;5031252;28;19913;-85
2022/08/03 08:50:23;;;;;;;;;;;;;;;37.35;20.29;100842.63;5016077;28;19921;-87
2022/08/03 08:52:49;;;;;;;;;;;;;;;37.87;19.76;100847.09;5048433;28;19913;-87
2022/08/03 08:55:22;;;;;;;;;;;;;;;37.99;19.31;100833.94;5033457;28;20314;-85
2022/08/03 08:57:48;;;;;;;;;;;;;;;38.22;19.15;100840.06;5029926;28;19926;-83
2022/08/03 09:00:14;;;;;;;;;;;;;;;38.66;18.81;100833.19;5021716;28;20320;-87
2022/08/03 09:02:41;;;;;;;;;;;;;;;39.20;18.37;100836.72;5008196;28;19932;-85
2022/08/03 09:05:09;;;;;;;;;;;;;;;40.02;16.84;100843.31;5047228;28;20019;-84
2022/08/03 09:07:34;;;;;;;;;;;;;;;40.64;16.66;100836.25;5029004;28;19917;-86
2022/08/03 09:13:19;;;;;;;;;;;;;;;40.90;15.70;100832.91;5036308;28;19949;-84
2022/08/03 09:15:46;;;;;;;;;;;;;;;41.05;15.53;100845.41;5040985;28;19913;-88
2022/08/03 09:18:14;;;;;;;;;;;;;;;41.87;14.90;100834.47;5030328;28;19918;-86
2022/08/03 09:20:39;;;;;;;;;;;;;;;42.11;15.08;100834.19;5015744;28;19921;-90
2022/08/03 09:23:11;;;;;;;;;;;;;;;42.48;14.26;100824.44;5017365;28;20443;-84
2022/08/03 09:25:40;;;;;;;;;;;;;;;44.07;13.32;100818.13;5029128;28;20365;-86
2022/08/03 09:28:10;;;;;;;;;;;;;;;45.11;12.61;100824.84;5016682;28;19917;-86
2022/08/03 09:30:41;;;;;;;;;;;;;;;45.37;11.69;100826.66;5010705;28;19936;-89
2022/08/03 09:33:11;;;;;;;;;;;;;;;45.79;11.27;100818.81;5024776;28;20298;-85
2022/08/03 09:35:41;;;;;;;;;;;;;;;46.54;10.89;100830.47;5032849;28;19923;-84
2022/08/03 09:38:12;;;;;;;;;;;;;;;46.92;10.64;100828.88;5034451;28;19971;-85
2022/08/03 09:40:39;;;;;;;;;;;;;;;45.43;11.23;100829.97;5034316;28;20373;-84
2022/08/03 09:43:09;;;;;;;;;;;;;;;45.76;11.17;100820.44;5034921;28;19974;-87
2022/08/03 09:45:36;;;;;;;;;;;;;;;45.73;11.40;100815.56;5035570;28;19917;-85
2022/08/03 09:48:25;;;;;;;;;;;;;;;46.24;10.81;100811.69;4997930;28;20396;-84
2022/08/03 09:50:53;;;;;;;;;;;;;;;46.39;13.09;100823.13;5034957;28;19921;-85
2022/08/03 09:53:19;;;;;;;;;;;;;;;46.62;12.95;100820.72;5035104;28;20016;-85
2022/08/03 09:55:55;;;;;;;;;;;;;;;45.12;15.31;100817.13;5013589;28;19922;-85
2022/08/03 09:58:21;;;;;;;;;;;;;;;42.22;19.58;100825.94;5012418;28;19928;-86
2022/08/03 10:01:07;;;;;;;;;;;;;;;41.57;20.26;100825.72;5012829;28;19917;-85
2022/08/03 10:03:49;;;;;;;;;;;;;;;41.53;19.90;100831.25;5012502;28;19925;-84
2022/08/03 10:06:15;;;;;;;;;;;;;;;41.06;20.29;100829.28;5012761;28;19924;-86
2022/08/03 10:08:40;;;;;;;;;;;;;;;41.50;19.70;100826.34;5015679;28;20086;-85
2022/08/03 10:11:05;;;;;;;;;;;;;;;42.00;19.33;100830.31;5027046;28;20414;-85
2022/08/03 10:13:31;;;;;;;;;;;;;;;42.80;18.61;100830.69;5031546;28;19925;-86
2022/08/03 10:15:56;;;;;;;;;;;;;;;41.17;19.93;100824.78;5015712;28;19921;-87
2022/08/03 10:18:21;;;;;;;;;;;;;;;40.58;22.57;100819.97;5016368;28;19975;-85
2022/08/03 10:21:08;;;;;;;;;;;;;;;41.44;22.05;100822.16;5005845;28;19972;-84
2022/08/03 10:23:35;;;;;;;;;;;;;;;40.84;23.34;100823.13;5032107;28;20389;-86
2022/08/03 10:26:01;;;;;;;;;;;;;;;41.18;22.18;100823.56;5033317;28;19920;-86
2022/08/03 10:28:27;;;;;;;;;;;;;;;41.48;21.72;100817.44;5015724;28;19917;-86
2022/08/03 10:30:53;;;;;;;;;;;;;;;40.06;23.54;100813.25;5033508;28;19936;-87
2022/08/03 10:33:28;;;;;;;;;;;;;;;39.18;25.06;100813.75;5034147;28;19924;-87
2022/08/03 10:35:53;;;;;;;;;;;;;;;38.74;26.12;100813.44;5033097;28;19948;-85
2022/08/03 10:38:20;;;;;;;;;;;;;;;38.83;25.53;100811.34;5031203;28;20373;-88
2022/08/03 10:40:46;;;;;;;;;;;;;;;39.18;25.33;100805.31;5018623;28;19917;-86
2022/08/03 10:43:14;;;;;;;;;;;;;;;38.57;26.21;100813.66;5022500;28;19996;-86
2022/08/03 10:45:39;;;;;;;;;;;;;;;40.05;24.31;100809.63;5017827;28;20025;-86
2022/08/03 10:48:08;;;;;;;;;;;;;;;40.06;24.11;100816.91;5015040;28;19960;-84
2022/08/03 10:50:34;;;;;;;;;;;;;;;39.24;24.66;100815.16;5030949;28;20381;-84
2022/08/03 10:53:09;;;;;;;;;;;;;;;38.71;25.34;100814.16;5020654;28;19918;-83
2022/08/03 10:58:37;;;;;;;;;;;;;;;38.05;26.80;100808.50;5015941;28;20449;-86
2022/08/03 11:01:06;;;;;;;;;;;;;;;37.95;26.88;100804.91;5026771;28;20388;-89
2022/08/03 11:03:31;;;;;;;;;;;;;;;37.18;27.88;100793.91;5016468;28;20330;-88
2022/08/03 11:06:13;;;;;;;;;;;;;;;36.24;29.06;100798.59;5028620;28;19928;-86
2022/08/03 11:08:42;;;;;;;;;;;;;;;34.58;31.23;100809.28;5017379;28;19972;-86
2022/08/03 11:11:34;;;;;;;;;;;;;;;33.97;32.74;100799.59;5031491;28;20028;-87
2022/08/03 11:14:09;;;;;;;;;;;;;;;33.61;33.08;100797.66;5032423;28;20385;-87
2022/08/03 11:16:40;;;;;;;;;;;;;;;32.40;35.20;100789.34;5031690;28;20389;-86
2022/08/03 11:19:06;;;;;;;;;;;;;;;33.17;34.60;100790.75;5035262;28;19953;-89
2022/08/03 11:21:47;;;;;;;;;;;;;;;33.23;34.63;100800.66;5036226;28;19948;-87
2022/08/03 11:24:31;;;;;;;;;;;;;;;33.48;34.43;100790.09;5032743;28;19921;-89
2022/08/03 11:27:19;;;;;;;;;;;;;;;31.97;36.55;100786.72;5033566;28;19928;-90
2022/08/03 11:30:03;;;;;;;;;;;;;;;32.19;36.35;100786.09;5028423;28;19909;-90
2022/08/03 11:32:47;;;;;;;;;;;;;;;32.30;35.74;100786.75;5028509;28;20023;-85
2022/08/03 11:35:13;;;;;;;;;;;;;;;32.06;36.30;100795.22;5019595;28;19918;-86
2022/08/03 11:37:57;;;;;;;;;;;;;;;31.33;37.59;100789.78;5030500;28;20008;-86
2022/08/03 11:40:32;;;;;;;;;;;;;;;31.33;37.13;100773.13;5020763;28;20372;-87
2022/08/03 11:42:57;;;;;;;;;;;;;;;30.97;38.39;100769.13;5021637;28;20348;-87
2022/08/03 11:45:23;;;;;;;;;;;;;;;30.44;38.63;100769.94;5028288;28;20403;-85
2022/08/03 11:47:50;;;;;;;;;;;;;;;30.68;38.12;100765.22;5036615;28;20420;-84
2022/08/03 11:50:17;;;;;;;;;;;;;;;30.79;38.35;100790.09;5029667;28;19917;-85
2022/08/03 11:52:43;;;;;;;;;;;;;;;30.99;37.43;100783.53;5030693;28;20403;-86
2022/08/03 11:55:09;;;;;;;;;;;;;;;30.98;37.12;100773.56;5042668;28;19964;-85
2022/08/03 11:57:34;;;;;;;;;;;;;;;31.38;36.84;100782.50;5025627;28;19940;-86
2022/08/03 11:59:59;;;;;;;;;;;;;;;30.82;38.02;100789.53;5031912;28;20304;-85
2022/08/03 12:02:25;;;;;;;;;;;;;;;30.83;38.06;100775.34;5033765;28;19967;-85
2022/08/03 12:04:50;;;;;;;;;;;;;;;31.26;36.89;100775.44;5039057;28;19921;-87
2022/08/03 12:07:16;;;;;;;;;;;;;;;30.81;38.01;100783.16;5032167;28;19917;-86
2022/08/03 12:09:42;;;;;;;;;;;;;;;30.84;38.34;100777.03;5019728;28;19917;-87
2022/08/03 12:12:07;;;;;;;;;;;;;;;31.27;37.58;100773.47;5006929;28;19922;-85
2022/08/03 12:14:33;;;;;;;;;;;;;;;31.25;37.30;100784.88;5012496;28;19917;-85
2022/08/03 12:16:58;;;;;;;;;;;;;;;31.42;36.78;100776.09;5030118;28;19921;-86
2022/08/03 12:19:23;;;;;;;;;;;;;;;31.66;36.38;100770.47;5027782;28;19918;-86
2022/08/03 12:21:49;;;;;;;;;;;;;;;31.56;36.33;100773.38;5025177;28;20020;-86
2022/08/03 12:24:14;;;;;;;;;;;;;;;31.62;35.87;100771.38;4998778;28;20412;-86
2022/08/03 12:26:46;;;;;;;;;;;;;;;31.23;37.12;100773.22;5023123;28;19917;-84
2022/08/03 12:29:18;;;;;;;;;;;;;;;30.67;37.77;100776.63;5011899;28;19924;-86
2022/08/03 12:31:43;;;;;;;;;;;;;;;30.46;38.32;100776.84;5010736;28;20027;-88
2022/08/03 12:34:10;;;;;;;;;;;;;;;30.27;38.12;100768.41;5014674;28;19925;-86
2022/08/03 12:36:36;;;;;;;;;;;;;;;29.93;39.35;100767.53;5019427;28;19918;-86
2022/08/03 12:39:05;;;;;;;;;;;;;;;29.79;39.64;100772.88;5024538;28;20379;-85
2022/08/03 12:41:32;;;;;;;;;;;;;;;29.56;40.10;100768.84;5012809;28;19917;-88
2022/08/03 12:44:05;;;;;;;;;;;;;;;29.61;40.77;100766.84;5017783;28;19922;-85
2022/08/03 12:46:40;;;;;;;;;;;;;;;29.67;40.52;100760.22;5032702;28;19921;-85
2022/08/03 12:49:23;;;;;;;;;;;;;;;29.79;40.99;100764.56;5026491;28;20020;-87
2022/08/03 12:51:51;;;;;;;;;;;;;;;29.95;40.31;100765.31;5037354;28;19921;-84
2022/08/03 12:54:35;;;;;;;;;;;;;;;29.52;40.93;100768.56;5043117;28;19921;-91